CheckWX is a tool to help pilots better visualize weather data.  It is not intended as a substitute for an official pre-flight weather briefing.

00:54:17 UTC

EGPL METAR
Benbecula Airport
Balivanich, United Kingdom
Current

34 mins ago

EGPL 270020Z AUTO 23016KT 9000 OVC047/// 09/08 Q1028
Observed
Mar-27 @ 00:20 UTC
Wind
  • 230° at 16 KTS
Visibility
8,996 meters
Flight Rules
VFR
Cloud Levels
  • Overcast at 4,700' AGL
Temperature
C / 48°F
Dewpoint
C / 46°F
Humidity
94%
Altimeter
30.35" Hg
Pressure
1027.92 hPa
Previous

1 hour ago

EGPL 262350Z AUTO 23017KT 9999 OVC048/// 09/08 Q1028
Observed
Mar-26 @ 23:50 UTC
Wind
  • 230° at 17 KTS
Visibility
10,000+ meters
Flight Rules
VFR
Cloud Levels
  • Overcast at 4,800' AGL
Temperature
C / 48°F
Dewpoint
C / 46°F
Humidity
94%
Altimeter
30.35" Hg
Pressure
1027.92 hPa
Previous

2 hours ago

EGPL 262320Z AUTO 23016KT 9000 SCT039/// OVC047/// 09/08 Q1028
Observed
Mar-26 @ 23:20 UTC
Wind
  • 230° at 16 KTS
Visibility
8,996 meters
Flight Rules
VFR
Cloud Levels
  • Scattered at 3,900' AGL
  • Overcast at 4,700' AGL
Temperature
C / 48°F
Dewpoint
C / 46°F
Humidity
94%
Altimeter
30.35" Hg
Pressure
1027.92 hPa